sensor_id;sensor_type;location;lat;lon;timestamp;P1;durP1;ratioP1;P2;durP2;ratioP2
22254;SDS011;11296;42.684;23.322;2022-12-18T00:00:57;9.60;;;6.50;;
22254;SDS011;11296;42.684;23.322;2022-12-18T00:03:23;9.47;;;6.30;;
22254;SDS011;11296;42.684;23.322;2022-12-18T00:05:51;6.90;;;5.57;;
22254;SDS011;11296;42.684;23.322;2022-12-18T00:08:18;10.07;;;6.77;;
22254;SDS011;11296;42.684;23.322;2022-12-18T00:10:44;8.37;;;6.83;;
22254;SDS011;11296;42.684;23.322;2022-12-18T00:13:10;8.57;;;6.43;;
22254;SDS011;11296;42.684;23.322;2022-12-18T00:15:37;8.17;;;6.20;;
22254;SDS011;11296;42.684;23.322;2022-12-18T00:18:04;8.50;;;6.40;;
22254;SDS011;11296;42.684;23.322;2022-12-18T00:20:31;7.60;;;6.20;;
22254;SDS011;11296;42.684;23.322;2022-12-18T00:22:56;10.93;;;6.77;;
22254;SDS011;11296;42.684;23.322;2022-12-18T00:25:22;10.10;;;7.07;;
22254;SDS011;11296;42.684;23.322;2022-12-18T00:27:48;8.07;;;6.13;;
22254;SDS011;11296;42.684;23.322;2022-12-18T00:30:16;9.47;;;6.90;;
22254;SDS011;11296;42.684;23.322;2022-12-18T00:32:45;9.43;;;6.87;;
22254;SDS011;11296;42.684;23.322;2022-12-18T00:35:18;9.57;;;6.80;;
22254;SDS011;11296;42.684;23.322;2022-12-18T00:37:50;8.33;;;5.90;;
22254;SDS011;11296;42.684;23.322;2022-12-18T00:40:18;11.00;;;7.57;;
22254;SDS011;11296;42.684;23.322;2022-12-18T00:42:46;9.10;;;6.80;;
22254;SDS011;11296;42.684;23.322;2022-12-18T00:45:34;8.50;;;5.97;;
22254;SDS011;11296;42.684;23.322;2022-12-18T00:48:19;8.70;;;6.40;;
22254;SDS011;11296;42.684;23.322;2022-12-18T00:50:44;9.87;;;6.43;;
22254;SDS011;11296;42.684;23.322;2022-12-18T00:53:11;8.13;;;5.80;;
22254;SDS011;11296;42.684;23.322;2022-12-18T00:55:39;9.47;;;5.87;;
22254;SDS011;11296;42.684;23.322;2022-12-18T00:58:06;8.40;;;5.80;;
22254;SDS011;11296;42.684;23.322;2022-12-18T01:00:34;8.53;;;6.33;;
22254;SDS011;11296;42.684;23.322;2022-12-18T01:03:01;9.07;;;6.47;;
22254;SDS011;11296;42.684;23.322;2022-12-18T01:05:27;9.00;;;6.23;;
22254;SDS011;11296;42.684;23.322;2022-12-18T01:07:53;10.50;;;6.53;;
22254;SDS011;11296;42.684;23.322;2022-12-18T01:10:19;9.00;;;6.60;;
22254;SDS011;11296;42.684;23.322;2022-12-18T01:12:44;8.70;;;6.60;;
22254;SDS011;11296;42.684;23.322;2022-12-18T01:15:11;8.93;;;6.53;;
22254;SDS011;11296;42.684;23.322;2022-12-18T01:17:38;9.43;;;6.70;;
22254;SDS011;11296;42.684;23.322;2022-12-18T01:20:04;9.47;;;6.67;;
22254;SDS011;11296;42.684;23.322;2022-12-18T01:22:31;12.57;;;7.53;;
22254;SDS011;11296;42.684;23.322;2022-12-18T01:24:59;11.13;;;7.80;;
22254;SDS011;11296;42.684;23.322;2022-12-18T01:27:24;10.53;;;7.17;;
22254;SDS011;11296;42.684;23.322;2022-12-18T01:29:50;10.83;;;7.50;;
22254;SDS011;11296;42.684;23.322;2022-12-18T01:32:18;12.97;;;8.63;;
22254;SDS011;11296;42.684;23.322;2022-12-18T01:34:44;11.53;;;7.30;;
22254;SDS011;11296;42.684;23.322;2022-12-18T01:37:10;8.47;;;6.07;;
22254;SDS011;11296;42.684;23.322;2022-12-18T01:39:36;11.33;;;7.60;;
22254;SDS011;11296;42.684;23.322;2022-12-18T01:42:09;12.93;;;8.03;;
22254;SDS011;11296;42.684;23.322;2022-12-18T01:50:30;11.70;;;7.70;;
22254;SDS011;11296;42.684;23.322;2022-12-18T01:53:05;12.17;;;7.97;;
22254;SDS011;11296;42.684;23.322;2022-12-18T01:55:35;10.53;;;7.23;;
22254;SDS011;11296;42.684;23.322;2022-12-18T01:58:05;14.03;;;8.50;;
22254;SDS011;11296;42.684;23.322;2022-12-18T02:00:31;9.83;;;7.17;;
22254;SDS011;11296;42.684;23.322;2022-12-18T02:02:57;10.43;;;7.07;;
22254;SDS011;11296;42.684;23.322;2022-12-18T02:10:41;11.80;;;6.27;;
22254;SDS011;11296;42.684;23.322;2022-12-18T02:18:47;9.93;;;6.33;;
22254;SDS011;11296;42.684;23.322;2022-12-18T02:26:58;7.80;;;6.00;;
22254;SDS011;11296;42.684;23.322;2022-12-18T02:32:25;9.50;;;6.50;;
22254;SDS011;11296;42.684;23.322;2022-12-18T02:34:55;8.63;;;5.73;;
22254;SDS011;11296;42.684;23.322;2022-12-18T02:37:24;9.57;;;6.90;;
22254;SDS011;11296;42.684;23.322;2022-12-18T02:39:54;8.03;;;6.57;;
22254;SDS011;11296;42.684;23.322;2022-12-18T02:42:22;9.83;;;6.80;;
22254;SDS011;11296;42.684;23.322;2022-12-18T02:44:51;10.17;;;7.10;;
22254;SDS011;11296;42.684;23.322;2022-12-18T02:47:24;9.40;;;6.50;;
22254;SDS011;11296;42.684;23.322;2022-12-18T02:55:33;10.77;;;7.40;;
22254;SDS011;11296;42.684;23.322;2022-12-18T02:58:40;11.50;;;7.33;;
22254;SDS011;11296;42.684;23.322;2022-12-18T03:01:19;9.70;;;6.70;;
22254;SDS011;11296;42.684;23.322;2022-12-18T03:03:57;9.30;;;6.73;;
22254;SDS011;11296;42.684;23.322;2022-12-18T03:06:39;10.57;;;7.13;;
22254;SDS011;11296;42.684;23.322;2022-12-18T03:09:19;10.37;;;6.97;;
22254;SDS011;11296;42.684;23.322;2022-12-18T03:11:53;11.10;;;7.50;;
22254;SDS011;11296;42.684;23.322;2022-12-18T03:14:40;11.90;;;6.53;;
22254;SDS011;11296;42.684;23.322;2022-12-18T03:17:10;10.60;;;7.07;;
22254;SDS011;11296;42.684;23.322;2022-12-18T03:19:39;11.10;;;6.20;;
22254;SDS011;11296;42.684;23.322;2022-12-18T03:22:08;11.73;;;8.07;;
22254;SDS011;11296;42.684;23.322;2022-12-18T03:24:46;10.13;;;6.70;;
22254;SDS011;11296;42.684;23.322;2022-12-18T03:27:14;13.27;;;6.80;;
22254;SDS011;11296;42.684;23.322;2022-12-18T03:29:53;10.57;;;6.47;;
22254;SDS011;11296;42.684;23.322;2022-12-18T03:32:44;9.97;;;7.10;;
22254;SDS011;11296;42.684;23.322;2022-12-18T03:35:13;9.73;;;6.47;;
22254;SDS011;11296;42.684;23.322;2022-12-18T03:37:43;10.13;;;6.40;;
22254;SDS011;11296;42.684;23.322;2022-12-18T03:40:09;10.23;;;6.87;;
22254;SDS011;11296;42.684;23.322;2022-12-18T03:45:32;9.10;;;6.20;;
22254;SDS011;11296;42.684;23.322;2022-12-18T03:48:08;13.00;;;6.93;;
22254;SDS011;11296;42.684;23.322;2022-12-18T03:51:11;10.53;;;6.87;;
22254;SDS011;11296;42.684;23.322;2022-12-18T03:53:46;9.47;;;6.50;;
22254;SDS011;11296;42.684;23.322;2022-12-18T03:56:22;9.20;;;6.23;;
22254;SDS011;11296;42.684;23.322;2022-12-18T03:58:50;8.27;;;5.83;;
22254;SDS011;11296;42.684;23.322;2022-12-18T04:01:28;9.30;;;6.00;;
22254;SDS011;11296;42.684;23.322;2022-12-18T04:03:58;10.83;;;6.57;;
22254;SDS011;11296;42.684;23.322;2022-12-18T04:06:26;8.83;;;5.53;;
22254;SDS011;11296;42.684;23.322;2022-12-18T04:08:54;12.17;;;7.33;;
22254;SDS011;11296;42.684;23.322;2022-12-18T04:11:24;9.10;;;6.20;;
22254;SDS011;11296;42.684;23.322;2022-12-18T04:13:50;10.17;;;6.83;;
22254;SDS011;11296;42.684;23.322;2022-12-18T04:16:24;10.63;;;7.23;;
22254;SDS011;11296;42.684;23.322;2022-12-18T04:18:54;11.83;;;8.10;;
22254;SDS011;11296;42.684;23.322;2022-12-18T04:21:22;8.07;;;5.30;;
22254;SDS011;11296;42.684;23.322;2022-12-18T04:23:49;12.90;;;8.37;;
22254;SDS011;11296;42.684;23.322;2022-12-18T04:26:15;17.07;;;7.93;;
22254;SDS011;11296;42.684;23.322;2022-12-18T04:28:54;12.23;;;7.73;;
22254;SDS011;11296;42.684;23.322;2022-12-18T04:31:19;13.90;;;8.20;;
22254;SDS011;11296;42.684;23.322;2022-12-18T04:33:46;13.27;;;7.93;;
22254;SDS011;11296;42.684;23.322;2022-12-18T04:36:12;17.20;;;8.87;;
22254;SDS011;11296;42.684;23.322;2022-12-18T04:38:39;13.93;;;8.30;;
22254;SDS011;11296;42.684;23.322;2022-12-18T04:41:09;11.23;;;7.50;;
22254;SDS011;11296;42.684;23.322;2022-12-18T04:43:39;12.73;;;8.53;;
22254;SDS011;11296;42.684;23.322;2022-12-18T04:46:06;14.97;;;8.43;;
22254;SDS011;11296;42.684;23.322;2022-12-18T04:48:33;14.73;;;8.57;;
22254;SDS011;11296;42.684;23.322;2022-12-18T04:51:01;15.73;;;9.50;;
22254;SDS011;11296;42.684;23.322;2022-12-18T04:53:29;13.57;;;8.10;;
22254;SDS011;11296;42.684;23.322;2022-12-18T04:56:02;13.87;;;7.90;;
22254;SDS011;11296;42.684;23.322;2022-12-18T04:58:32;14.20;;;8.43;;
22254;SDS011;11296;42.684;23.322;2022-12-18T05:00:57;15.17;;;9.20;;
22254;SDS011;11296;42.684;23.322;2022-12-18T05:03:23;11.63;;;7.30;;
22254;SDS011;11296;42.684;23.322;2022-12-18T05:05:49;14.87;;;9.00;;
22254;SDS011;11296;42.684;23.322;2022-12-18T05:08:16;10.70;;;6.03;;
22254;SDS011;11296;42.684;23.322;2022-12-18T05:10:42;13.10;;;8.07;;
22254;SDS011;11296;42.684;23.322;2022-12-18T05:13:08;17.60;;;9.77;;
22254;SDS011;11296;42.684;23.322;2022-12-18T05:15:36;13.90;;;6.60;;
22254;SDS011;11296;42.684;23.322;2022-12-18T05:18:02;16.73;;;9.70;;
22254;SDS011;11296;42.684;23.322;2022-12-18T05:20:29;15.97;;;10.07;;
22254;SDS011;11296;42.684;23.322;2022-12-18T05:22:55;16.83;;;10.13;;
22254;SDS011;11296;42.684;23.322;2022-12-18T05:25:21;15.83;;;9.43;;
22254;SDS011;11296;42.684;23.322;2022-12-18T05:27:47;17.50;;;10.17;;
22254;SDS011;11296;42.684;23.322;2022-12-18T05:30:13;13.90;;;8.23;;
22254;SDS011;11296;42.684;23.322;2022-12-18T05:32:39;16.43;;;9.17;;
22254;SDS011;11296;42.684;23.322;2022-12-18T05:35:08;11.40;;;6.97;;
22254;SDS011;11296;42.684;23.322;2022-12-18T05:37:38;15.80;;;9.57;;
22254;SDS011;11296;42.684;23.322;2022-12-18T05:40:06;18.20;;;10.33;;
22254;SDS011;11296;42.684;23.322;2022-12-18T05:42:33;17.77;;;10.90;;
22254;SDS011;11296;42.684;23.322;2022-12-18T05:44:58;18.63;;;10.27;;
22254;SDS011;11296;42.684;23.322;2022-12-18T05:47:24;16.17;;;9.97;;
22254;SDS011;11296;42.684;23.322;2022-12-18T05:49:50;16.70;;;10.73;;
22254;SDS011;11296;42.684;23.322;2022-12-18T05:52:15;16.77;;;10.30;;
22254;SDS011;11296;42.684;23.322;2022-12-18T05:54:41;17.20;;;10.57;;
22254;SDS011;11296;42.684;23.322;2022-12-18T05:57:07;21.37;;;11.40;;
22254;SDS011;11296;42.684;23.322;2022-12-18T05:59:33;19.27;;;11.23;;
22254;SDS011;11296;42.684;23.322;2022-12-18T06:01:58;17.43;;;10.53;;
22254;SDS011;11296;42.684;23.322;2022-12-18T06:04:27;18.77;;;10.23;;
22254;SDS011;11296;42.684;23.322;2022-12-18T06:06:57;20.17;;;11.43;;
22254;SDS011;11296;42.684;23.322;2022-12-18T06:09:23;19.97;;;11.10;;
22254;SDS011;11296;42.684;23.322;2022-12-18T06:11:49;18.97;;;10.97;;
22254;SDS011;11296;42.684;23.322;2022-12-18T06:14:18;20.33;;;12.00;;
22254;SDS011;11296;42.684;23.322;2022-12-18T06:16:47;17.07;;;10.77;;
22254;SDS011;11296;42.684;23.322;2022-12-18T06:19:15;18.63;;;11.27;;
22254;SDS011;11296;42.684;23.322;2022-12-18T06:21:41;17.93;;;11.33;;
22254;SDS011;11296;42.684;23.322;2022-12-18T06:24:07;16.27;;;10.07;;
22254;SDS011;11296;42.684;23.322;2022-12-18T06:26:33;16.23;;;10.37;;
22254;SDS011;11296;42.684;23.322;2022-12-18T06:28:59;18.37;;;10.53;;
22254;SDS011;11296;42.684;23.322;2022-12-18T06:31:25;17.67;;;11.43;;
22254;SDS011;11296;42.684;23.322;2022-12-18T06:33:51;18.63;;;10.73;;
22254;SDS011;11296;42.684;23.322;2022-12-18T06:36:17;17.37;;;10.10;;
22254;SDS011;11296;42.684;23.322;2022-12-18T06:38:43;18.80;;;10.90;;
22254;SDS011;11296;42.684;23.322;2022-12-18T06:41:13;17.93;;;10.27;;
22254;SDS011;11296;42.684;23.322;2022-12-18T06:43:40;16.23;;;9.67;;
22254;SDS011;11296;42.684;23.322;2022-12-18T06:46:15;15.50;;;9.27;;
22254;SDS011;11296;42.684;23.322;2022-12-18T06:48:41;16.77;;;9.10;;
22254;SDS011;11296;42.684;23.322;2022-12-18T06:51:10;19.53;;;11.17;;
22254;SDS011;11296;42.684;23.322;2022-12-18T06:53:36;17.33;;;9.77;;
22254;SDS011;11296;42.684;23.322;2022-12-18T06:56:05;18.53;;;10.67;;
22254;SDS011;11296;42.684;23.322;2022-12-18T06:58:32;16.80;;;10.37;;
22254;SDS011;11296;42.684;23.322;2022-12-18T07:01:01;12.83;;;8.53;;
22254;SDS011;11296;42.684;23.322;2022-12-18T07:03:29;18.57;;;11.03;;
22254;SDS011;11296;42.684;23.322;2022-12-18T07:05:55;14.60;;;8.30;;
22254;SDS011;11296;42.684;23.322;2022-12-18T07:08:21;18.43;;;10.40;;
22254;SDS011;11296;42.684;23.322;2022-12-18T07:10:46;16.57;;;9.77;;
22254;SDS011;11296;42.684;23.322;2022-12-18T07:13:17;15.97;;;9.87;;
22254;SDS011;11296;42.684;23.322;2022-12-18T07:15:43;18.50;;;10.77;;
22254;SDS011;11296;42.684;23.322;2022-12-18T07:18:09;16.10;;;9.47;;
22254;SDS011;11296;42.684;23.322;2022-12-18T07:20:35;18.87;;;12.20;;
22254;SDS011;11296;42.684;23.322;2022-12-18T07:23:04;18.90;;;11.73;;
22254;SDS011;11296;42.684;23.322;2022-12-18T07:25:33;19.20;;;10.63;;
22254;SDS011;11296;42.684;23.322;2022-12-18T07:28:00;21.93;;;12.63;;
22254;SDS011;11296;42.684;23.322;2022-12-18T07:30:26;18.07;;;11.27;;
22254;SDS011;11296;42.684;23.322;2022-12-18T07:32:51;20.13;;;12.17;;
22254;SDS011;11296;42.684;23.322;2022-12-18T07:35:17;22.23;;;12.70;;
22254;SDS011;11296;42.684;23.322;2022-12-18T07:37:43;20.50;;;12.80;;
22254;SDS011;11296;42.684;23.322;2022-12-18T07:40:10;19.97;;;11.27;;
22254;SDS011;11296;42.684;23.322;2022-12-18T07:42:36;22.73;;;12.93;;
22254;SDS011;11296;42.684;23.322;2022-12-18T07:45:02;21.67;;;13.03;;
22254;SDS011;11296;42.684;23.322;2022-12-18T07:47:29;16.40;;;8.43;;
22254;SDS011;11296;42.684;23.322;2022-12-18T07:49:57;23.00;;;13.73;;
22254;SDS011;11296;42.684;23.322;2022-12-18T07:52:23;23.10;;;13.90;;
22254;SDS011;11296;42.684;23.322;2022-12-18T07:54:49;22.57;;;13.10;;
22254;SDS011;11296;42.684;23.322;2022-12-18T07:57:15;26.47;;;13.80;;
22254;SDS011;11296;42.684;23.322;2022-12-18T07:59:51;24.40;;;13.97;;
22254;SDS011;11296;42.684;23.322;2022-12-18T08:02:16;20.03;;;11.07;;
22254;SDS011;11296;42.684;23.322;2022-12-18T08:04:42;21.67;;;13.00;;
22254;SDS011;11296;42.684;23.322;2022-12-18T08:07:08;23.63;;;13.33;;
22254;SDS011;11296;42.684;23.322;2022-12-18T08:09:36;23.23;;;12.50;;
22254;SDS011;11296;42.684;23.322;2022-12-18T08:12:04;26.53;;;14.90;;
22254;SDS011;11296;42.684;23.322;2022-12-18T08:14:30;25.87;;;13.67;;
22254;SDS011;11296;42.684;23.322;2022-12-18T08:16:56;21.47;;;13.13;;
22254;SDS011;11296;42.684;23.322;2022-12-18T08:19:22;24.13;;;13.17;;
22254;SDS011;11296;42.684;23.322;2022-12-18T08:21:47;26.40;;;14.00;;
22254;SDS011;11296;42.684;23.322;2022-12-18T08:24:13;23.00;;;13.70;;
22254;SDS011;11296;42.684;23.322;2022-12-18T08:26:39;26.70;;;14.10;;
22254;SDS011;11296;42.684;23.322;2022-12-18T08:29:04;24.03;;;14.17;;
22254;SDS011;11296;42.684;23.322;2022-12-18T08:31:30;25.47;;;13.23;;
22254;SDS011;11296;42.684;23.322;2022-12-18T08:33:57;22.67;;;12.33;;
22254;SDS011;11296;42.684;23.322;2022-12-18T08:36:23;20.57;;;12.03;;
22254;SDS011;11296;42.684;23.322;2022-12-18T08:38:51;25.93;;;13.80;;
22254;SDS011;11296;42.684;23.322;2022-12-18T08:41:17;25.07;;;13.60;;
22254;SDS011;11296;42.684;23.322;2022-12-18T08:43:44;25.63;;;14.80;;
22254;SDS011;11296;42.684;23.322;2022-12-18T08:46:35;24.87;;;14.10;;
22254;SDS011;11296;42.684;23.322;2022-12-18T08:49:06;23.77;;;13.73;;
22254;SDS011;11296;42.684;23.322;2022-12-18T08:51:33;23.40;;;14.43;;
22254;SDS011;11296;42.684;23.322;2022-12-18T08:53:59;21.67;;;12.73;;
22254;SDS011;11296;42.684;23.322;2022-12-18T08:56:25;15.17;;;8.37;;
22254;SDS011;11296;42.684;23.322;2022-12-18T08:58:52;17.23;;;10.30;;
22254;SDS011;11296;42.684;23.322;2022-12-18T09:01:18;23.97;;;13.30;;
22254;SDS011;11296;42.684;23.322;2022-12-18T09:03:44;23.10;;;12.73;;
22254;SDS011;11296;42.684;23.322;2022-12-18T09:06:13;20.40;;;11.57;;
22254;SDS011;11296;42.684;23.322;2022-12-18T09:08:41;21.93;;;12.40;;
22254;SDS011;11296;42.684;23.322;2022-12-18T09:13:45;20.47;;;11.23;;
22254;SDS011;11296;42.684;23.322;2022-12-18T09:16:11;20.10;;;11.90;;
22254;SDS011;11296;42.684;23.322;2022-12-18T09:18:37;18.77;;;10.00;;
22254;SDS011;11296;42.684;23.322;2022-12-18T09:21:12;13.63;;;8.13;;
22254;SDS011;11296;42.684;23.322;2022-12-18T09:23:52;19.40;;;10.20;;
22254;SDS011;11296;42.684;23.322;2022-12-18T09:26:22;19.43;;;11.30;;
22254;SDS011;11296;42.684;23.322;2022-12-18T09:28:49;16.40;;;9.67;;
22254;SDS011;11296;42.684;23.322;2022-12-18T09:31:16;18.33;;;10.47;;
22254;SDS011;11296;42.684;23.322;2022-12-18T09:33:42;19.93;;;10.70;;
22254;SDS011;11296;42.684;23.322;2022-12-18T09:36:11;20.13;;;11.43;;
22254;SDS011;11296;42.684;23.322;2022-12-18T09:38:42;22.17;;;11.93;;
22254;SDS011;11296;42.684;23.322;2022-12-18T09:43:59;19.43;;;11.40;;
22254;SDS011;11296;42.684;23.322;2022-12-18T09:46:39;22.00;;;11.90;;
22254;SDS011;11296;42.684;23.322;2022-12-18T09:49:14;18.67;;;10.50;;
22254;SDS011;11296;42.684;23.322;2022-12-18T09:52:05;20.17;;;11.10;;
22254;SDS011;11296;42.684;23.322;2022-12-18T09:54:38;19.10;;;11.33;;
22254;SDS011;11296;42.684;23.322;2022-12-18T09:57:26;21.87;;;12.13;;
22254;SDS011;11296;42.684;23.322;2022-12-18T09:59:56;21.73;;;11.77;;
22254;SDS011;11296;42.684;23.322;2022-12-18T10:02:36;19.30;;;11.67;;
22254;SDS011;11296;42.684;23.322;2022-12-18T10:05:07;17.53;;;10.57;;
22254;SDS011;11296;42.684;23.322;2022-12-18T10:13:07;21.00;;;11.57;;
22254;SDS011;11296;42.684;23.322;2022-12-18T10:18:22;20.33;;;11.60;;
22254;SDS011;11296;42.684;23.322;2022-12-18T10:20:52;20.87;;;12.07;;
22254;SDS011;11296;42.684;23.322;2022-12-18T10:23:27;19.77;;;11.10;;
22254;SDS011;11296;42.684;23.322;2022-12-18T10:26:07;21.43;;;11.67;;
22254;SDS011;11296;42.684;23.322;2022-12-18T10:28:35;20.30;;;12.17;;
22254;SDS011;11296;42.684;23.322;2022-12-18T10:31:07;20.90;;;12.03;;
22254;SDS011;11296;42.684;23.322;2022-12-18T10:33:47;24.13;;;12.23;;
22254;SDS011;11296;42.684;23.322;2022-12-18T10:36:13;21.60;;;12.53;;
22254;SDS011;11296;42.684;23.322;2022-12-18T10:38:39;22.80;;;12.60;;
22254;SDS011;11296;42.684;23.322;2022-12-18T10:43:39;21.03;;;12.40;;
22254;SDS011;11296;42.684;23.322;2022-12-18T10:53:53;20.93;;;12.20;;
22254;SDS011;11296;42.684;23.322;2022-12-18T10:56:28;20.20;;;11.77;;
22254;SDS011;11296;42.684;23.322;2022-12-18T10:59:00;20.30;;;10.20;;
22254;SDS011;11296;42.684;23.322;2022-12-18T11:01:28;19.83;;;11.37;;
22254;SDS011;11296;42.684;23.322;2022-12-18T11:04:13;20.27;;;12.17;;
22254;SDS011;11296;42.684;23.322;2022-12-18T11:09:38;19.17;;;10.73;;
22254;SDS011;11296;42.684;23.322;2022-12-18T11:12:15;19.13;;;11.23;;
22254;SDS011;11296;42.684;23.322;2022-12-18T11:14:47;19.73;;;11.23;;
22254;SDS011;11296;42.684;23.322;2022-12-18T11:19:58;19.27;;;10.97;;
22254;SDS011;11296;42.684;23.322;2022-12-18T11:22:29;21.93;;;12.30;;
22254;SDS011;11296;42.684;23.322;2022-12-18T11:25:41;23.37;;;12.90;;
22254;SDS011;11296;42.684;23.322;2022-12-18T11:31:18;23.10;;;12.30;;
22254;SDS011;11296;42.684;23.322;2022-12-18T11:36:59;21.33;;;12.17;;
22254;SDS011;11296;42.684;23.322;2022-12-18T11:39:44;22.77;;;12.90;;
22254;SDS011;11296;42.684;23.322;2022-12-18T11:42:25;20.23;;;11.83;;
22254;SDS011;11296;42.684;23.322;2022-12-18T11:50:28;22.13;;;12.90;;
22254;SDS011;11296;42.684;23.322;2022-12-18T11:52:59;21.97;;;11.27;;
22254;SDS011;11296;42.684;23.322;2022-12-18T11:55:31;20.40;;;11.33;;
22254;SDS011;11296;42.684;23.322;2022-12-18T12:04:45;18.63;;;11.13;;
22254;SDS011;11296;42.684;23.322;2022-12-18T12:12:37;19.73;;;10.67;;
22254;SDS011;11296;42.684;23.322;2022-12-18T12:26:29;25.70;;;14.83;;
22254;SDS011;11296;42.684;23.322;2022-12-18T12:29:01;26.50;;;16.63;;
22254;SDS011;11296;42.684;23.322;2022-12-18T12:31:48;21.30;;;12.43;;
22254;SDS011;11296;42.684;23.322;2022-12-18T12:34:31;24.23;;;14.57;;
22254;SDS011;11296;42.684;23.322;2022-12-18T12:37:16;23.20;;;14.40;;
22254;SDS011;11296;42.684;23.322;2022-12-18T12:39:59;23.40;;;14.87;;
22254;SDS011;11296;42.684;23.322;2022-12-18T12:42:41;21.60;;;12.17;;
22254;SDS011;11296;42.684;23.322;2022-12-18T12:45:38;23.87;;;12.73;;
22254;SDS011;11296;42.684;23.322;2022-12-18T12:51:22;22.87;;;13.07;;
22254;SDS011;11296;42.684;23.322;2022-12-18T12:53:57;20.47;;;11.73;;
22254;SDS011;11296;42.684;23.322;2022-12-18T12:57:01;20.20;;;10.77;;
22254;SDS011;11296;42.684;23.322;2022-12-18T13:02:27;26.67;;;15.73;;
22254;SDS011;11296;42.684;23.322;2022-12-18T13:08:55;19.93;;;10.57;;
22254;SDS011;11296;42.684;23.322;2022-12-18T13:14:22;25.30;;;14.13;;
22254;SDS011;11296;42.684;23.322;2022-12-18T13:20:03;20.20;;;12.30;;
22254;SDS011;11296;42.684;23.322;2022-12-18T13:22:34;20.03;;;10.93;;
22254;SDS011;11296;42.684;23.322;2022-12-18T13:40:58;22.97;;;13.47;;
22254;SDS011;11296;42.684;23.322;2022-12-18T13:43:27;21.73;;;11.77;;
22254;SDS011;11296;42.684;23.322;2022-12-18T13:48:41;27.53;;;14.57;;
22254;SDS011;11296;42.684;23.322;2022-12-18T13:51:17;40.97;;;18.73;;
22254;SDS011;11296;42.684;23.322;2022-12-18T13:53:47;23.47;;;13.47;;
22254;SDS011;11296;42.684;23.322;2022-12-18T13:56:25;21.97;;;11.87;;
22254;SDS011;11296;42.684;23.322;2022-12-18T13:59:13;22.30;;;11.50;;
22254;SDS011;11296;42.684;23.322;2022-12-18T14:01:45;28.93;;;14.60;;
22254;SDS011;11296;42.684;23.322;2022-12-18T14:06:57;25.53;;;14.17;;
22254;SDS011;11296;42.684;23.322;2022-12-18T14:09:32;28.77;;;14.30;;
22254;SDS011;11296;42.684;23.322;2022-12-18T14:12:01;37.40;;;18.23;;
22254;SDS011;11296;42.684;23.322;2022-12-18T14:14:46;16.40;;;10.17;;
22254;SDS011;11296;42.684;23.322;2022-12-18T14:17:17;20.93;;;11.30;;
22254;SDS011;11296;42.684;23.322;2022-12-18T14:19:46;28.07;;;14.17;;
22254;SDS011;11296;42.684;23.322;2022-12-18T14:22:24;22.37;;;12.83;;
22254;SDS011;11296;42.684;23.322;2022-12-18T14:25:06;37.00;;;19.40;;
22254;SDS011;11296;42.684;23.322;2022-12-18T14:27:49;25.93;;;15.07;;
22254;SDS011;11296;42.684;23.322;2022-12-18T14:32:59;20.57;;;12.10;;
22254;SDS011;11296;42.684;23.322;2022-12-18T14:35:29;24.73;;;13.30;;
22254;SDS011;11296;42.684;23.322;2022-12-18T14:40:46;24.93;;;13.60;;
22254;SDS011;11296;42.684;23.322;2022-12-18T14:43:12;20.47;;;10.20;;
22254;SDS011;11296;42.684;23.322;2022-12-18T14:45:44;27.63;;;13.40;;
22254;SDS011;11296;42.684;23.322;2022-12-18T14:50:37;21.93;;;11.37;;
22254;SDS011;11296;42.684;23.322;2022-12-18T14:53:03;21.10;;;11.30;;
22254;SDS011;11296;42.684;23.322;2022-12-18T14:55:29;18.97;;;10.33;;
22254;SDS011;11296;42.684;23.322;2022-12-18T14:57:57;22.70;;;12.20;;
22254;SDS011;11296;42.684;23.322;2022-12-18T15:00:24;18.27;;;10.27;;
22254;SDS011;11296;42.684;23.322;2022-12-18T15:02:54;21.57;;;11.93;;
22254;SDS011;11296;42.684;23.322;2022-12-18T15:07:52;22.23;;;11.87;;
22254;SDS011;11296;42.684;23.322;2022-12-18T15:10:23;17.43;;;9.77;;
22254;SDS011;11296;42.684;23.322;2022-12-18T15:20:41;18.73;;;10.33;;
22254;SDS011;11296;42.684;23.322;2022-12-18T15:23:20;16.87;;;10.57;;
22254;SDS011;11296;42.684;23.322;2022-12-18T15:25:49;19.40;;;10.50;;
22254;SDS011;11296;42.684;23.322;2022-12-18T15:28:34;17.33;;;10.13;;
22254;SDS011;11296;42.684;23.322;2022-12-18T15:31:03;16.47;;;9.07;;
22254;SDS011;11296;42.684;23.322;2022-12-18T15:33:37;15.27;;;9.13;;
22254;SDS011;11296;42.684;23.322;2022-12-18T15:36:08;16.77;;;9.17;;
22254;SDS011;11296;42.684;23.322;2022-12-18T15:38:39;18.50;;;9.90;;
22254;SDS011;11296;42.684;23.322;2022-12-18T15:41:08;20.57;;;10.00;;
22254;SDS011;11296;42.684;23.322;2022-12-18T15:43:48;20.53;;;10.00;;
22254;SDS011;11296;42.684;23.322;2022-12-18T15:46:26;18.63;;;9.60;;
22254;SDS011;11296;42.684;23.322;2022-12-18T15:48:54;18.27;;;9.47;;
22254;SDS011;11296;42.684;23.322;2022-12-18T15:51:39;21.00;;;10.90;;
22254;SDS011;11296;42.684;23.322;2022-12-18T15:54:05;21.73;;;10.80;;
22254;SDS011;11296;42.684;23.322;2022-12-18T15:56:38;20.30;;;11.07;;
22254;SDS011;11296;42.684;23.322;2022-12-18T15:59:22;18.43;;;10.13;;
22254;SDS011;11296;42.684;23.322;2022-12-18T16:01:49;19.37;;;11.80;;
22254;SDS011;11296;42.684;23.322;2022-12-18T16:04:17;19.43;;;10.87;;
22254;SDS011;11296;42.684;23.322;2022-12-18T16:06:50;17.40;;;10.37;;
22254;SDS011;11296;42.684;23.322;2022-12-18T16:09:18;20.83;;;11.47;;
22254;SDS011;11296;42.684;23.322;2022-12-18T16:11:43;20.20;;;11.00;;
22254;SDS011;11296;42.684;23.322;2022-12-18T16:14:17;21.53;;;11.93;;
22254;SDS011;11296;42.684;23.322;2022-12-18T16:16:51;23.43;;;11.70;;
22254;SDS011;11296;42.684;23.322;2022-12-18T16:19:18;23.83;;;11.87;;
22254;SDS011;11296;42.684;23.322;2022-12-18T16:21:45;22.53;;;12.20;;
22254;SDS011;11296;42.684;23.322;2022-12-18T16:24:16;21.83;;;11.77;;
22254;SDS011;11296;42.684;23.322;2022-12-18T16:26:47;23.40;;;12.87;;
22254;SDS011;11296;42.684;23.322;2022-12-18T16:29:13;23.20;;;12.43;;
22254;SDS011;11296;42.684;23.322;2022-12-18T16:31:39;22.80;;;12.33;;
22254;SDS011;11296;42.684;23.322;2022-12-18T16:34:13;21.93;;;12.33;;
22254;SDS011;11296;42.684;23.322;2022-12-18T16:36:51;23.33;;;12.70;;
22254;SDS011;11296;42.684;23.322;2022-12-18T16:39:18;21.97;;;12.30;;
22254;SDS011;11296;42.684;23.322;2022-12-18T16:41:47;27.17;;;12.30;;
22254;SDS011;11296;42.684;23.322;2022-12-18T16:44:13;22.93;;;12.37;;
22254;SDS011;11296;42.684;23.322;2022-12-18T16:46:39;21.23;;;12.30;;
22254;SDS011;11296;42.684;23.322;2022-12-18T16:49:08;24.43;;;13.53;;
22254;SDS011;11296;42.684;23.322;2022-12-18T16:51:35;24.07;;;13.00;;
22254;SDS011;11296;42.684;23.322;2022-12-18T16:54:03;22.03;;;12.27;;
22254;SDS011;11296;42.684;23.322;2022-12-18T16:56:30;23.57;;;11.27;;
22254;SDS011;11296;42.684;23.322;2022-12-18T16:58:59;23.47;;;12.63;;
22254;SDS011;11296;42.684;23.322;2022-12-18T17:01:28;22.13;;;12.10;;
22254;SDS011;11296;42.684;23.322;2022-12-18T17:03:56;24.83;;;12.93;;
22254;SDS011;11296;42.684;23.322;2022-12-18T17:06:28;21.50;;;11.63;;
22254;SDS011;11296;42.684;23.322;2022-12-18T17:08:58;23.27;;;12.93;;